createdAt,value
2022-11-16T00:00:43.570Z,39.65
2022-11-16T00:02:19.777Z,36.88
2022-11-16T00:04:02.899Z,34.97
2022-11-16T00:05:43.701Z,37.90
2022-11-16T00:07:20.276Z,37.30
2022-11-16T00:08:59.512Z,36.22
2022-11-16T00:10:36.749Z,35.72
2022-11-16T00:12:13.376Z,36.10
2022-11-16T00:13:49.068Z,36.08
2022-11-16T00:15:25.105Z,41.92
2022-11-16T00:17:01.318Z,35.53
2022-11-16T00:18:37.582Z,38.60
2022-11-16T00:20:13.511Z,46.42
2022-11-16T00:21:48.631Z,40.05
2022-11-16T00:23:23.866Z,44.03
2022-11-16T00:24:59.245Z,41.45
2022-11-16T00:26:36.118Z,43.50
2022-11-16T00:28:11.375Z,40.08
2022-11-16T00:29:46.713Z,37.33
2022-11-16T00:31:27.631Z,45.70
2022-11-16T00:33:04.613Z,39.45
2022-11-16T00:34:40.984Z,42.85
2022-11-16T00:36:16.709Z,38.67
2022-11-16T00:37:52.285Z,38.28
2022-11-16T00:39:28.170Z,46.58
2022-11-16T00:41:10.049Z,43.25
2022-11-16T00:42:47.445Z,40.50
2022-11-16T00:44:23.665Z,45.92
2022-11-16T00:45:58.485Z,38.85
2022-11-16T00:47:34.459Z,44.83
2022-11-16T00:49:10.017Z,40.13
2022-11-16T00:50:46.634Z,39.17
2022-11-16T00:52:22.761Z,40.40
2022-11-16T00:53:59.037Z,42.08
2022-11-16T00:55:34.560Z,45.13
2022-11-16T00:57:09.591Z,51.28
2022-11-16T00:58:46.786Z,38.47
2022-11-16T01:00:23.360Z,38.78
2022-11-16T01:01:59.383Z,46.55
2022-11-16T01:03:40.036Z,47.25
2022-11-16T01:05:21.777Z,42.38
2022-11-16T01:07:02.490Z,43.53
2022-11-16T01:08:40.598Z,38.20
2022-11-16T01:10:19.175Z,36.30
2022-11-16T01:11:55.000Z,34.72
2022-11-16T01:13:30.202Z,33.17
2022-11-16T01:15:10.148Z,31.33
2022-11-16T01:16:50.348Z,28.30
2022-11-16T01:18:26.365Z,28.92
2022-11-16T01:20:03.260Z,28.83
2022-11-16T01:21:38.328Z,25.58
2022-11-16T01:23:13.442Z,26.50
2022-11-16T01:24:49.134Z,25.35
2022-11-16T01:26:24.486Z,24.38
2022-11-16T01:27:59.553Z,27.30
2022-11-16T01:29:35.112Z,25.88
2022-11-16T01:31:17.698Z,22.27
2022-11-16T01:32:53.203Z,25.55
2022-11-16T01:34:28.933Z,26.20
2022-11-16T01:36:10.949Z,27.23
2022-11-16T01:37:46.713Z,20.40
2022-11-16T01:39:22.784Z,20.17
2022-11-16T01:40:58.689Z,23.30
2022-11-16T01:42:33.857Z,28.50
2022-11-16T01:44:57.063Z,22.27
2022-11-16T01:46:33.476Z,21.15
2022-11-16T01:48:11.259Z,26.10
2022-11-16T01:49:54.509Z,22.05
2022-11-16T01:51:34.641Z,21.33
2022-11-16T01:53:12.686Z,21.98
2022-11-16T01:54:52.086Z,20.45
2022-11-16T01:56:29.667Z,22.92
2022-11-16T01:58:06.766Z,24.60
2022-11-16T01:59:44.923Z,21.95
2022-11-16T02:01:25.555Z,23.70
2022-11-16T02:03:03.598Z,26.38
2022-11-16T02:04:46.062Z,28.63
2022-11-16T02:06:55.702Z,27.50
2022-11-16T02:08:48.699Z,30.20
2022-11-16T02:10:44.245Z,27.77
2022-11-16T02:13:01.964Z,32.50
2022-11-16T02:15:01.361Z,31.00
2022-11-16T02:16:48.555Z,28.25
2022-11-16T02:18:35.373Z,28.77
2022-11-16T02:20:48.907Z,32.88
2022-11-16T02:22:48.099Z,25.95
2022-11-16T02:24:43.206Z,30.60
2022-11-16T02:27:02.578Z,28.55
2022-11-16T02:28:51.470Z,28.13
2022-11-16T02:30:28.066Z,31.20
2022-11-16T02:32:10.526Z,23.38
2022-11-16T02:33:50.104Z,24.42
2022-11-16T02:35:34.024Z,22.60
2022-11-16T02:37:14.371Z,22.65
2022-11-16T02:38:56.315Z,23.95
2022-11-16T02:40:34.869Z,26.08
2022-11-16T02:42:17.120Z,22.80
2022-11-16T02:44:01.522Z,23.38
2022-11-16T02:45:44.025Z,20.90
2022-11-16T02:47:25.010Z,18.55
2022-11-16T02:49:05.169Z,19.98
2022-11-16T02:50:41.635Z,20.25
2022-11-16T02:52:19.568Z,24.88
2022-11-16T02:54:02.729Z,23.70
2022-11-16T02:55:38.835Z,19.10
2022-11-16T02:58:54.246Z,18.73
2022-11-16T03:00:39.256Z,22.05
2022-11-16T03:02:25.138Z,19.38
2022-11-16T03:04:14.341Z,19.80
2022-11-16T03:06:04.194Z,18.38
2022-11-16T03:07:56.691Z,20.02
2022-11-16T03:09:39.704Z,17.35
2022-11-16T03:11:22.865Z,15.45
2022-11-16T03:13:05.661Z,15.85
2022-11-16T03:14:48.807Z,15.27
2022-11-16T03:16:32.088Z,18.40
2022-11-16T03:18:17.846Z,16.95
2022-11-16T03:20:15.525Z,16.38
2022-11-16T03:22:04.332Z,15.00
2022-11-16T03:23:44.774Z,20.15
2022-11-16T03:25:23.565Z,19.45
2022-11-16T03:27:07.384Z,16.90
2022-11-16T03:28:55.176Z,13.43
2022-11-16T03:30:41.408Z,11.77
2022-11-16T03:32:29.788Z,12.38
2022-11-16T03:34:12.666Z,20.60
2022-11-16T03:35:56.658Z,17.73
2022-11-16T03:37:33.243Z,18.10
2022-11-16T03:39:19.421Z,15.45
2022-11-16T03:41:09.654Z,18.77
2022-11-16T03:42:47.778Z,19.75
2022-11-16T03:44:27.570Z,21.25
2022-11-16T03:46:05.129Z,23.40
2022-11-16T03:47:42.633Z,18.48
2022-11-16T03:49:25.616Z,16.90
2022-11-16T03:51:04.902Z,33.35
2022-11-16T03:52:44.592Z,19.70
2022-11-16T03:54:20.143Z,17.40
2022-11-16T03:55:59.122Z,23.60
2022-11-16T03:57:39.784Z,13.95
2022-11-16T03:59:17.502Z,19.92
2022-11-16T04:00:53.738Z,20.45
2022-11-16T04:02:33.970Z,17.90
2022-11-16T04:04:16.436Z,18.60
2022-11-16T04:07:25.873Z,15.57
2022-11-16T04:09:01.767Z,21.95
2022-11-16T04:10:46.164Z,13.15
2022-11-16T04:12:23.240Z,16.58
2022-11-16T04:14:06.545Z,24.55
2022-11-16T04:15:45.993Z,18.35
2022-11-16T04:17:28.588Z,21.88
2022-11-16T04:19:07.999Z,30.35
2022-11-16T04:20:48.011Z,20.58
2022-11-16T04:22:33.566Z,18.58
2022-11-16T04:24:16.950Z,23.77
2022-11-16T04:26:00.737Z,22.35
2022-11-16T04:27:37.081Z,24.35
2022-11-16T04:29:16.912Z,33.53
2022-11-16T04:30:58.450Z,21.58
2022-11-16T04:32:38.018Z,17.85
2022-11-16T04:34:17.450Z,24.55
2022-11-16T04:35:57.009Z,27.30
2022-11-16T04:37:38.567Z,18.45
2022-11-16T04:39:21.310Z,20.90
2022-11-16T04:40:57.146Z,24.88
2022-11-16T04:42:33.129Z,23.35
2022-11-16T04:44:13.445Z,21.50
2022-11-16T04:45:57.166Z,24.48
2022-11-16T04:47:40.584Z,24.35
2022-11-16T04:49:18.409Z,24.00
2022-11-16T04:50:56.941Z,23.33
2022-11-16T04:52:36.996Z,25.75
2022-11-16T04:54:23.516Z,23.52
2022-11-16T04:56:03.164Z,27.77
2022-11-16T04:57:40.925Z,20.30
2022-11-16T04:59:19.749Z,31.23
2022-11-16T05:01:10.650Z,37.25
2022-11-16T05:02:55.607Z,22.02
2022-11-16T05:04:46.795Z,23.02
2022-11-16T05:06:32.286Z,25.40
2022-11-16T05:08:16.880Z,21.30
2022-11-16T05:09:55.856Z,22.90
2022-11-16T05:11:36.892Z,29.25
2022-11-16T05:13:14.714Z,25.70
2022-11-16T05:14:55.728Z,21.73
2022-11-16T05:16:33.975Z,23.55
2022-11-16T05:18:14.507Z,21.38
2022-11-16T05:19:54.539Z,30.35
2022-11-16T05:21:35.413Z,22.55
2022-11-16T05:23:17.488Z,28.70
2022-11-16T05:25:02.582Z,28.98
2022-11-16T05:26:41.243Z,25.38
2022-11-16T05:28:17.290Z,29.95
2022-11-16T05:29:53.823Z,17.20
2022-11-16T05:31:40.118Z,18.20
2022-11-16T05:34:37.122Z,15.80
2022-11-16T05:36:12.703Z,21.10
2022-11-16T05:37:47.771Z,22.55
2022-11-16T05:39:25.137Z,14.70
2022-11-16T05:41:00.630Z,11.40
2022-11-16T05:42:36.417Z,22.98
2022-11-16T05:44:12.227Z,15.85
2022-11-16T05:45:48.257Z,18.77
2022-11-16T05:47:24.963Z,22.83
2022-11-16T05:48:59.956Z,18.63
2022-11-16T05:50:42.355Z,16.70
2022-11-16T05:52:18.918Z,21.67
2022-11-16T05:53:53.748Z,10.98
2022-11-16T05:55:31.419Z,18.48
2022-11-16T05:57:06.970Z,18.42
2022-11-16T05:58:44.266Z,16.05
2022-11-16T06:00:20.436Z,15.68
2022-11-16T06:01:55.367Z,21.10
2022-11-16T06:03:37.317Z,13.85
2022-11-16T06:05:18.252Z,17.73
2022-11-16T06:06:58.778Z,19.38
2022-11-16T06:08:35.066Z,17.50
2022-11-16T06:10:10.385Z,17.70
2022-11-16T06:11:47.728Z,26.52
2022-11-16T06:13:22.960Z,21.13
2022-11-16T06:14:59.344Z,16.35
2022-11-16T06:16:35.932Z,26.20
2022-11-16T06:18:12.023Z,21.45
2022-11-16T06:19:47.029Z,14.23
2022-11-16T06:21:27.750Z,20.83
2022-11-16T06:23:03.010Z,19.35
2022-11-16T06:24:38.908Z,23.10
2022-11-16T06:26:13.809Z,18.45
2022-11-16T06:27:51.823Z,18.52
2022-11-16T06:29:32.865Z,14.70
2022-11-16T06:31:13.847Z,18.57
2022-11-16T06:32:49.159Z,17.35
2022-11-16T06:34:25.822Z,17.50
2022-11-16T06:36:02.007Z,15.82
2022-11-16T06:37:38.241Z,17.35
2022-11-16T06:39:13.358Z,21.50
2022-11-16T06:40:52.211Z,15.13
2022-11-16T06:42:27.529Z,13.23
2022-11-16T06:44:04.114Z,17.75
2022-11-16T06:45:39.737Z,27.92
2022-11-16T06:47:15.200Z,16.63
2022-11-16T06:48:52.875Z,17.00
2022-11-16T06:50:28.594Z,19.83
2022-11-16T06:52:05.467Z,21.33
2022-11-16T06:53:43.254Z,18.40
2022-11-16T06:55:20.163Z,15.02
2022-11-16T06:56:56.500Z,18.38
2022-11-16T06:58:33.875Z,15.40
2022-11-16T07:00:13.476Z,9.95
2022-11-16T07:01:50.958Z,20.27
2022-11-16T07:03:31.898Z,20.42
2022-11-16T07:05:12.595Z,18.13
2022-11-16T07:06:54.782Z,19.40
2022-11-16T07:08:31.955Z,16.38
2022-11-16T07:10:09.126Z,16.10
2022-11-16T07:11:45.165Z,24.33
2022-11-16T07:13:21.134Z,14.45
2022-11-16T07:14:57.655Z,15.32
2022-11-16T07:16:36.302Z,17.55
2022-11-16T07:18:13.191Z,26.23
2022-11-16T07:19:50.033Z,17.52
2022-11-16T07:21:31.596Z,12.93
2022-11-16T07:23:13.866Z,28.70
2022-11-16T07:24:50.029Z,21.65
2022-11-16T07:26:25.956Z,23.48
2022-11-16T07:28:01.939Z,17.60
2022-11-16T07:29:38.556Z,22.02
2022-11-16T07:31:19.149Z,12.20
2022-11-16T07:32:59.880Z,20.67
2022-11-16T07:34:36.330Z,22.20
2022-11-16T07:36:14.451Z,18.48
2022-11-16T07:37:49.850Z,22.38
2022-11-16T07:39:25.863Z,23.73
2022-11-16T07:41:02.850Z,23.40
2022-11-16T07:42:41.252Z,19.10
2022-11-16T07:44:21.007Z,16.08
2022-11-16T07:46:30.256Z,19.30
2022-11-16T07:48:03.029Z,21.58
2022-11-16T07:49:39.487Z,16.75
2022-11-16T07:51:20.589Z,19.30
2022-11-16T07:52:56.065Z,18.27
2022-11-16T07:54:31.921Z,26.33
2022-11-16T07:56:09.652Z,19.67
2022-11-16T07:57:47.950Z,23.02
2022-11-16T07:59:27.988Z,23.98
2022-11-16T08:01:10.149Z,25.48
2022-11-16T08:02:45.978Z,27.23
2022-11-16T08:04:28.127Z,21.05
2022-11-16T08:06:14.183Z,22.33
2022-11-16T08:07:50.659Z,29.40
2022-11-16T08:09:29.878Z,19.77
2022-11-16T08:12:31.827Z,24.85
2022-11-16T08:14:11.054Z,22.52
2022-11-16T08:15:47.211Z,15.77
2022-11-16T08:17:23.786Z,25.33
2022-11-16T08:19:00.107Z,22.67
2022-11-16T08:20:37.295Z,26.13
2022-11-16T08:22:12.954Z,23.70
2022-11-16T08:23:48.757Z,24.42
2022-11-16T08:25:26.469Z,32.13
2022-11-16T08:27:01.753Z,21.42
2022-11-16T08:28:38.068Z,15.50
2022-11-16T08:30:16.617Z,24.77
2022-11-16T08:31:53.559Z,21.13
2022-11-16T08:33:29.986Z,23.17
2022-11-16T08:35:06.287Z,23.60
2022-11-16T08:36:48.054Z,21.83
2022-11-16T08:38:28.213Z,29.65
2022-11-16T08:40:06.808Z,30.67
2022-11-16T08:41:42.396Z,17.67
2022-11-16T08:43:19.083Z,18.90
2022-11-16T08:44:55.695Z,20.63
2022-11-16T08:46:32.649Z,23.33
2022-11-16T08:48:11.235Z,21.55
2022-11-16T08:49:50.071Z,22.13
2022-11-16T08:53:28.077Z,18.77
2022-11-16T08:55:04.923Z,21.30
2022-11-16T08:56:41.322Z,29.73
2022-11-16T08:58:16.799Z,26.90
2022-11-16T08:59:54.240Z,23.25
2022-11-16T09:01:34.634Z,16.20
2022-11-16T09:03:15.230Z,19.27
2022-11-16T09:04:56.114Z,21.23
2022-11-16T09:06:37.054Z,24.23
2022-11-16T09:08:13.442Z,14.25
2022-11-16T09:09:53.909Z,22.60
2022-11-16T09:11:34.423Z,26.48
2022-11-16T09:15:09.338Z,24.10
2022-11-16T09:16:46.495Z,19.08
2022-11-16T09:18:25.709Z,22.70
2022-11-16T09:20:02.215Z,20.83
2022-11-16T09:21:38.256Z,16.08
2022-11-16T09:23:15.415Z,22.88
2022-11-16T09:24:53.455Z,18.17
2022-11-16T09:26:28.676Z,26.15
2022-11-16T09:28:08.163Z,22.70
2022-11-16T09:29:45.736Z,27.33
2022-11-16T09:31:26.601Z,25.85
2022-11-16T09:33:02.707Z,25.67
2022-11-16T09:34:42.754Z,32.67
2022-11-16T09:36:24.807Z,29.00
2022-11-16T09:38:02.370Z,20.48
2022-11-16T09:39:38.318Z,34.67
2022-11-16T09:41:55.056Z,22.75
2022-11-16T09:43:45.867Z,20.70
2022-11-16T09:45:30.581Z,21.67
2022-11-16T09:47:09.498Z,29.25
2022-11-16T09:48:46.826Z,22.38
2022-11-16T09:54:37.798Z,22.50
2022-11-16T09:56:22.439Z,25.20
2022-11-16T09:58:02.976Z,25.80
2022-11-16T09:59:46.427Z,23.40
2022-11-16T10:01:32.504Z,32.85
2022-11-16T10:03:14.462Z,20.38
2022-11-16T10:05:02.619Z,20.80
2022-11-16T10:06:51.171Z,23.77
2022-11-16T10:08:42.397Z,21.67
2022-11-16T10:10:25.961Z,23.73
2022-11-16T10:12:16.766Z,19.02
2022-11-16T10:14:06.773Z,20.80
2022-11-16T10:15:57.863Z,23.95
2022-11-16T10:17:54.806Z,24.80
2022-11-16T10:19:43.527Z,23.08
2022-11-16T10:21:43.688Z,20.95
2022-11-16T10:23:38.242Z,31.35
2022-11-16T10:25:19.500Z,23.80
2022-11-16T10:27:19.267Z,20.30
2022-11-16T10:29:37.255Z,19.95
2022-11-16T10:31:28.253Z,21.95
2022-11-16T10:33:11.460Z,25.02
2022-11-16T10:34:52.910Z,24.70
2022-11-16T10:36:33.798Z,19.38
2022-11-16T10:38:14.181Z,18.73
2022-11-16T10:39:52.032Z,22.83
2022-11-16T10:41:40.333Z,15.85
2022-11-16T10:43:25.447Z,16.65
2022-11-16T10:45:13.487Z,24.53
2022-11-16T10:47:00.829Z,20.67
2022-11-16T10:48:42.940Z,20.38
2022-11-16T10:50:31.461Z,16.25
2022-11-16T10:52:08.098Z,17.95
2022-11-16T10:53:44.347Z,17.83
2022-11-16T10:55:22.902Z,17.88
2022-11-16T10:57:05.316Z,19.83
2022-11-16T10:58:55.113Z,22.38
2022-11-16T11:00:47.999Z,23.75
2022-11-16T11:02:33.953Z,24.60
2022-11-16T11:04:21.511Z,19.33
2022-11-16T11:06:02.041Z,21.35
2022-11-16T11:07:49.321Z,18.70
2022-11-16T11:09:30.347Z,17.42
2022-11-16T11:11:21.812Z,20.95
2022-11-16T11:13:25.614Z,19.25
2022-11-16T11:15:25.517Z,25.67
2022-11-16T11:17:11.921Z,19.40
2022-11-16T11:18:47.240Z,21.67
2022-11-16T11:20:25.662Z,23.10
2022-11-16T11:22:01.823Z,22.95
2022-11-16T11:23:44.517Z,24.40
2022-11-16T11:25:24.477Z,21.83
2022-11-16T11:27:01.137Z,26.55
2022-11-16T11:28:38.650Z,24.48
2022-11-16T11:30:20.188Z,23.98
2022-11-16T11:32:00.792Z,24.65
2022-11-16T11:33:49.330Z,25.52
2022-11-16T11:35:27.382Z,21.90
2022-11-16T11:37:11.196Z,16.05
2022-11-16T11:40:58.789Z,18.65
2022-11-16T11:42:34.472Z,25.70
2022-11-16T11:44:17.618Z,20.50
2022-11-16T11:46:03.864Z,19.08
2022-11-16T11:47:57.941Z,26.67
2022-11-16T11:49:41.809Z,21.38
2022-11-16T11:51:27.526Z,13.70
2022-11-16T11:53:16.074Z,17.77
2022-11-16T11:54:55.579Z,26.27
2022-11-16T11:56:33.179Z,24.10
2022-11-16T11:58:18.149Z,14.68
2022-11-16T11:59:54.537Z,22.73
2022-11-16T12:02:05.947Z,19.95
2022-11-16T12:04:32.450Z,24.38
2022-11-16T12:06:22.538Z,17.48
2022-11-16T12:08:32.927Z,16.90
2022-11-16T12:10:21.606Z,14.73
2022-11-16T12:12:15.155Z,17.75
2022-11-16T12:14:17.483Z,13.13
2022-11-16T12:16:07.631Z,22.80
2022-11-16T12:17:50.714Z,17.50
2022-11-16T12:19:50.309Z,21.92
2022-11-16T12:21:49.186Z,15.55
2022-11-16T12:24:06.488Z,16.20
2022-11-16T12:25:54.101Z,14.95
2022-11-16T12:27:42.739Z,16.23
2022-11-16T12:29:25.993Z,14.10
2022-11-16T12:31:25.251Z,20.80
2022-11-16T12:33:20.589Z,14.05
2022-11-16T12:35:28.320Z,17.27
2022-11-16T12:37:16.038Z,20.08
2022-11-16T12:39:07.668Z,13.85
2022-11-16T12:41:05.181Z,19.42
2022-11-16T12:42:52.330Z,15.15
2022-11-16T12:44:50.660Z,13.82
2022-11-16T12:46:38.343Z,17.35
2022-11-16T12:48:57.074Z,17.58
2022-11-16T12:50:48.969Z,21.50
2022-11-16T12:52:57.349Z,17.55
2022-11-16T12:55:25.304Z,21.55
2022-11-16T12:57:11.613Z,17.48
2022-11-16T12:59:25.137Z,16.50
2022-11-16T13:01:10.768Z,15.60
2022-11-16T13:03:10.524Z,13.07
2022-11-16T13:04:56.532Z,19.23
2022-11-16T13:06:43.614Z,24.63
2022-11-16T13:08:33.822Z,16.63
2022-11-16T13:10:18.519Z,21.85
2022-11-16T13:11:57.972Z,19.75
2022-11-16T13:13:36.749Z,18.65
2022-11-16T13:15:17.753Z,19.63
2022-11-16T13:16:54.319Z,13.00
2022-11-16T13:18:32.738Z,16.75
2022-11-16T13:20:31.501Z,19.00
2022-11-16T13:22:17.386Z,18.48
2022-11-16T13:24:27.004Z,15.05
2022-11-16T13:26:09.440Z,18.73
2022-11-16T13:27:50.950Z,12.02
2022-11-16T13:29:37.513Z,17.02
2022-11-16T13:31:25.378Z,22.40
2022-11-16T13:33:20.558Z,19.00
2022-11-16T13:34:57.616Z,22.65
2022-11-16T13:36:45.574Z,17.80
2022-11-16T13:38:54.919Z,14.95
2022-11-16T13:40:32.350Z,17.58
2022-11-16T13:42:13.072Z,20.15
2022-11-16T13:43:49.448Z,20.67
2022-11-16T13:45:31.967Z,23.38
2022-11-16T13:47:21.598Z,20.27
2022-11-16T13:48:57.148Z,17.75
2022-11-16T13:50:38.392Z,12.80
2022-11-16T13:52:23.740Z,19.42
2022-11-16T13:54:43.948Z,14.25
2022-11-16T13:56:01.755Z,13.05
2022-11-16T13:57:37.652Z,20.90
2022-11-16T13:59:16.247Z,17.38
2022-11-16T14:01:02.456Z,14.73
2022-11-16T14:02:41.374Z,18.17
2022-11-16T14:04:57.516Z,19.73
2022-11-16T14:06:59.537Z,17.38
2022-11-16T14:08:50.565Z,16.77
2022-11-16T14:11:02.441Z,21.58
2022-11-16T14:12:56.173Z,17.58
2022-11-16T14:15:11.824Z,17.52
2022-11-16T14:16:50.621Z,16.30
2022-11-16T14:18:34.278Z,13.90
2022-11-16T14:20:13.849Z,18.75
2022-11-16T14:21:59.908Z,16.48
2022-11-16T14:24:09.347Z,14.55
2022-11-16T14:25:55.261Z,16.08
2022-11-16T14:27:41.747Z,17.35
2022-11-16T14:29:41.222Z,18.42
2022-11-16T14:31:25.960Z,24.67
2022-11-16T14:33:00.458Z,13.93
2022-11-16T14:34:42.192Z,14.55
2022-11-16T14:36:38.813Z,18.05
2022-11-16T14:38:26.382Z,14.38
2022-11-16T14:40:08.590Z,22.33
2022-11-16T14:41:46.227Z,14.80
2022-11-16T14:43:26.674Z,17.08
2022-11-16T14:45:04.824Z,13.43
2022-11-16T14:46:41.499Z,17.73
2022-11-16T14:48:20.303Z,19.98
2022-11-16T14:49:57.227Z,15.93
2022-11-16T14:51:38.857Z,13.32
2022-11-16T14:53:19.266Z,18.50
2022-11-16T14:54:58.465Z,17.48
2022-11-16T14:56:33.618Z,20.52
2022-11-16T14:58:16.159Z,15.32
2022-11-16T15:00:12.455Z,14.38
2022-11-16T15:01:48.543Z,15.02
2022-11-16T15:03:35.261Z,15.77
2022-11-16T15:05:19.192Z,23.13
2022-11-16T15:07:03.973Z,14.63
2022-11-16T15:08:47.837Z,20.02
2022-11-16T15:10:27.348Z,16.40
2022-11-16T15:12:05.110Z,21.42
2022-11-16T15:13:46.894Z,14.85
2022-11-16T15:15:26.368Z,19.77
2022-11-16T15:17:01.494Z,21.70
2022-11-16T15:18:36.507Z,17.08
2022-11-16T15:20:17.802Z,17.75
2022-11-16T15:21:56.549Z,19.98
2022-11-16T15:23:32.616Z,14.77
2022-11-16T15:25:29.817Z,16.58
2022-11-16T15:27:24.743Z,18.58
2022-11-16T15:29:00.698Z,19.38
2022-11-16T15:30:38.680Z,19.45
2022-11-16T15:32:17.084Z,17.60
2022-11-16T15:33:52.619Z,17.00
2022-11-16T15:35:31.505Z,19.65
2022-11-16T15:37:11.257Z,15.20
2022-11-16T15:38:47.594Z,16.30
2022-11-16T15:40:24.594Z,15.93
2022-11-16T15:42:04.022Z,15.85
2022-11-16T15:44:12.398Z,20.45
2022-11-16T15:45:51.408Z,18.73
2022-11-16T15:47:28.554Z,15.75
2022-11-16T15:49:09.161Z,16.08
2022-11-16T15:51:04.086Z,19.08
2022-11-16T15:52:43.365Z,17.08
2022-11-16T15:54:25.698Z,22.70
2022-11-16T15:56:04.164Z,15.88
2022-11-16T15:57:45.457Z,16.23
2022-11-16T15:59:28.110Z,18.63
2022-11-16T16:01:07.561Z,18.52
2022-11-16T16:02:44.901Z,17.67
2022-11-16T16:04:26.749Z,17.15
2022-11-16T16:07:38.683Z,18.90
2022-11-16T16:09:26.156Z,19.05
2022-11-16T16:11:11.092Z,19.27
2022-11-16T16:12:49.309Z,16.33
2022-11-16T16:14:28.131Z,14.50
2022-11-16T16:16:26.586Z,20.23
2022-11-16T16:18:04.332Z,15.93
2022-11-16T16:19:43.061Z,16.48
2022-11-16T16:21:24.385Z,15.20
2022-11-16T16:23:08.137Z,18.38
2022-11-16T16:24:45.770Z,18.80
2022-11-16T16:26:23.490Z,16.30
2022-11-16T16:27:59.693Z,13.85
2022-11-16T16:29:35.785Z,19.65
2022-11-16T16:31:18.212Z,18.08
2022-11-16T16:32:56.369Z,15.23
2022-11-16T16:34:39.306Z,24.88
2022-11-16T16:36:18.553Z,19.95
2022-11-16T16:37:58.444Z,24.23
2022-11-16T16:39:33.970Z,19.80
2022-11-16T16:41:24.038Z,19.83
2022-11-16T16:42:59.920Z,16.58
2022-11-16T16:44:35.816Z,12.70
2022-11-16T16:46:11.952Z,18.80
2022-11-16T16:47:47.516Z,11.63
2022-11-16T16:49:24.289Z,14.18
2022-11-16T16:50:59.470Z,19.58
2022-11-16T16:52:38.246Z,18.60
2022-11-16T16:54:17.557Z,18.05
2022-11-16T16:55:52.990Z,20.02
2022-11-16T16:57:28.049Z,18.08
2022-11-16T16:59:04.067Z,22.77
2022-11-16T17:00:38.659Z,21.40
2022-11-16T17:02:15.327Z,24.08
2022-11-16T17:03:56.739Z,28.42
2022-11-16T17:05:38.916Z,18.05
2022-11-16T17:07:19.592Z,18.33
2022-11-16T17:08:56.309Z,22.20
2022-11-16T17:10:31.942Z,21.88
2022-11-16T17:12:08.891Z,19.30
2022-11-16T17:13:44.868Z,23.23
2022-11-16T17:15:20.917Z,26.42
2022-11-16T17:16:57.019Z,22.52
2022-11-16T17:18:32.935Z,19.88
2022-11-16T17:20:10.896Z,17.33
2022-11-16T17:21:48.125Z,17.38
2022-11-16T17:23:24.506Z,24.58
2022-11-16T17:25:00.362Z,24.55
2022-11-16T17:26:36.530Z,25.05
2022-11-16T17:28:11.998Z,25.48
2022-11-16T17:29:47.443Z,19.73
2022-11-16T17:31:28.004Z,18.45
2022-11-16T17:33:03.552Z,19.92
2022-11-16T17:34:39.741Z,20.92
2022-11-16T17:36:19.352Z,19.85
2022-11-16T17:37:56.921Z,22.55
2022-11-16T17:39:35.677Z,18.27
2022-11-16T17:41:18.529Z,17.70
2022-11-16T17:42:56.870Z,29.30
2022-11-16T17:44:33.062Z,18.25
2022-11-16T17:46:11.347Z,18.45
2022-11-16T17:47:47.066Z,19.23
2022-11-16T17:49:23.016Z,15.75
2022-11-16T17:50:59.439Z,22.65
2022-11-16T17:52:38.348Z,21.02
2022-11-16T17:54:16.001Z,21.30
2022-11-16T17:55:52.424Z,18.80
2022-11-16T17:57:28.448Z,18.65
2022-11-16T17:59:03.774Z,25.70
2022-11-16T18:00:40.714Z,16.92
2022-11-16T18:02:16.221Z,14.43
2022-11-16T18:03:56.888Z,26.27
2022-11-16T18:05:37.452Z,16.65
2022-11-16T18:07:15.333Z,16.60
2022-11-16T18:08:52.727Z,22.77
2022-11-16T18:10:29.171Z,22.50
2022-11-16T18:12:06.071Z,15.77
2022-11-16T18:13:41.899Z,20.90
2022-11-16T18:15:36.568Z,23.35
2022-11-16T18:17:14.244Z,25.13
2022-11-16T18:18:55.542Z,22.50
2022-11-16T18:20:35.374Z,17.63
2022-11-16T18:22:11.700Z,21.23
2022-11-16T18:23:47.100Z,16.90
2022-11-16T18:25:23.219Z,22.92
2022-11-16T18:27:00.243Z,20.98
2022-11-16T18:28:36.554Z,20.60
2022-11-16T18:30:14.214Z,19.67
2022-11-16T18:31:49.972Z,24.85
2022-11-16T18:33:30.876Z,21.80
2022-11-16T18:35:07.744Z,18.58
2022-11-16T18:36:43.107Z,17.50
2022-11-16T18:38:18.984Z,20.25
2022-11-16T18:39:54.514Z,16.23
2022-11-16T18:41:35.418Z,23.15
2022-11-16T18:43:13.603Z,19.83
2022-11-16T18:44:52.462Z,28.15
2022-11-16T18:46:30.713Z,16.35
2022-11-16T18:48:07.854Z,13.93
2022-11-16T18:49:43.638Z,15.77
2022-11-16T18:51:26.266Z,15.27
2022-11-16T18:53:01.842Z,18.10
2022-11-16T18:54:37.430Z,19.73
2022-11-16T18:56:14.199Z,20.35
2022-11-16T18:57:49.621Z,20.60
2022-11-16T18:59:28.149Z,19.48
2022-11-16T19:01:06.748Z,17.55
2022-11-16T19:02:42.260Z,18.75
2022-11-16T19:04:22.891Z,26.63
2022-11-16T19:06:07.142Z,27.20
2022-11-16T19:07:43.519Z,26.98
2022-11-16T19:09:19.150Z,20.70
2022-11-16T19:10:55.306Z,22.40
2022-11-16T19:12:31.418Z,28.15
2022-11-16T19:14:08.909Z,20.38
2022-11-16T19:15:46.445Z,28.55
2022-11-16T19:17:24.092Z,28.65
2022-11-16T19:19:00.390Z,26.92
2022-11-16T19:20:36.148Z,32.75
2022-11-16T19:22:11.975Z,32.60
2022-11-16T19:23:51.056Z,24.52
2022-11-16T19:25:27.407Z,32.70
2022-11-16T19:27:04.326Z,38.15
2022-11-16T19:28:45.519Z,22.67
2022-11-16T19:30:21.158Z,17.30
2022-11-16T19:31:58.507Z,20.02
2022-11-16T19:33:35.394Z,16.27
2022-11-16T19:35:12.461Z,22.63
2022-11-16T19:36:47.945Z,18.98
2022-11-16T19:38:24.145Z,19.25
2022-11-16T19:39:59.335Z,25.20
2022-11-16T19:41:35.298Z,21.85
2022-11-16T19:43:12.174Z,20.25
2022-11-16T19:44:48.346Z,25.00
2022-11-16T19:46:24.364Z,22.70
2022-11-16T19:48:00.956Z,17.70
2022-11-16T19:49:36.452Z,18.65
2022-11-16T19:51:19.933Z,21.38
2022-11-16T19:52:56.579Z,23.50
2022-11-16T19:54:33.000Z,23.33
2022-11-16T19:56:12.277Z,25.90
2022-11-16T19:57:48.381Z,24.17
2022-11-16T19:59:25.084Z,26.52
2022-11-16T20:01:01.913Z,21.98
2022-11-16T20:02:38.913Z,22.30
2022-11-16T20:04:21.195Z,27.13
2022-11-16T20:07:27.158Z,25.80
2022-11-16T20:09:07.242Z,25.10
2022-11-16T20:10:42.961Z,19.55
2022-11-16T20:12:18.959Z,24.17
2022-11-16T20:13:56.878Z,18.65
2022-11-16T20:15:32.506Z,15.85
2022-11-16T20:17:10.250Z,24.48
2022-11-16T20:18:46.886Z,21.10
2022-11-16T20:20:23.034Z,24.42
2022-11-16T20:21:58.435Z,18.52
2022-11-16T20:23:36.012Z,18.13
2022-11-16T20:25:12.362Z,18.92
2022-11-16T20:26:49.226Z,16.48
2022-11-16T20:28:24.361Z,23.60
2022-11-16T20:29:59.045Z,19.50
2022-11-16T20:31:35.053Z,18.95
2022-11-16T20:33:11.019Z,21.55
2022-11-16T20:34:47.425Z,23.80
2022-11-16T20:36:26.947Z,20.17
2022-11-16T20:38:01.887Z,20.67
2022-11-16T20:39:37.446Z,18.92
2022-11-16T20:41:21.109Z,22.55
2022-11-16T20:42:56.343Z,29.50
2022-11-16T20:44:33.267Z,19.77
2022-11-16T20:46:10.212Z,21.13
2022-11-16T20:47:45.917Z,28.85
2022-11-16T20:49:21.415Z,22.08
2022-11-16T20:50:57.073Z,23.10
2022-11-16T20:52:38.268Z,16.83
2022-11-16T20:54:19.195Z,21.05
2022-11-16T20:55:55.687Z,22.17
2022-11-16T20:57:31.423Z,17.35
2022-11-16T20:59:08.066Z,17.25
2022-11-16T21:00:44.761Z,19.65
2022-11-16T21:02:20.324Z,18.45
2022-11-16T21:04:03.435Z,20.83
2022-11-16T21:05:45.946Z,15.75
2022-11-16T21:07:21.867Z,18.17
2022-11-16T21:08:59.949Z,19.05
2022-11-16T21:10:36.692Z,12.95
2022-11-16T21:12:11.947Z,14.40
2022-11-16T21:13:48.190Z,12.90
2022-11-16T21:15:27.667Z,12.48
2022-11-16T21:17:04.219Z,17.70
2022-11-16T21:18:41.382Z,10.75
2022-11-16T21:20:27.582Z,13.90
2022-11-16T21:22:04.001Z,14.07
2022-11-16T21:23:44.765Z,13.50
2022-11-16T21:25:23.701Z,13.48
2022-11-16T21:26:58.791Z,12.57
2022-11-16T21:28:35.086Z,13.52
2022-11-16T21:30:13.128Z,15.77
2022-11-16T21:31:49.330Z,13.55
2022-11-16T21:33:26.257Z,11.25
2022-11-16T21:35:01.551Z,17.67
2022-11-16T21:36:38.282Z,18.60
2022-11-16T21:38:14.756Z,16.35
2022-11-16T21:39:51.087Z,10.80
2022-11-16T21:41:33.349Z,10.70
2022-11-16T21:43:08.819Z,15.65
2022-11-16T21:44:45.818Z,13.48
2022-11-16T21:46:25.782Z,13.57
2022-11-16T21:48:04.025Z,19.38
2022-11-16T21:49:54.210Z,20.30
2022-11-16T21:51:35.424Z,19.65
2022-11-16T21:53:11.795Z,19.25
2022-11-16T21:54:48.434Z,18.92
2022-11-16T21:56:25.982Z,12.18
2022-11-16T21:58:03.062Z,16.88
2022-11-16T21:59:39.338Z,17.40
2022-11-16T22:01:20.522Z,15.10
2022-11-16T22:02:57.465Z,20.15